EW7703 Weather Reports


Display with metric or nautical units.
time (UTC)temp
F
wind
direction
speed
MPH
gust
MPH
rain 1hr
in
rain 24hr
in
rain mn
in
humidity
%
barometer
mb
20210917171547 71 210 5.0 8.0 0.00 0.00 0.00 73 1026.6
20210917170024 71 219 6.0 11.0 0.00 0.00 0.00 73 1026.8
20210917164519 73 172 6.0 11.0 0.00 0.00 0.00 70 1026.9
20210917163036 73 215 5.0 10.0 0.00 0.00 0.00 69 1026.9
20210917161517 72 169 4.0 8.0 0.00 0.00 0.00 69 1026.9
20210917160019 71 225 4.0 8.0 0.00 0.00 0.00 69 1027.0
20210917154532 71 225 3.0 6.0 0.00 0.00 0.00 70 1027.2
20210917153009 69 222 3.0 8.0 0.00 0.00 0.00 74 1027.3
20210917151507 69 281 3.0 5.0 0.00 0.00 0.00 74 1027.4
20210917150003 69 277 1.0 5.0 0.00 0.00 0.00 73 1027.6
20210917144625 67 11 1.0 4.0 0.00 0.00 0.00 73 1027.8
20210917143135 67 29 2.0 4.0 0.00 0.00 0.00 75 1028.0
20210917141639 66 61 2.0 5.0 0.00 0.00 0.00 75 1028.2
20210917140133 65 71 2.0 5.0 0.00 0.00 0.00 76 1028.5
20210917134605 64 87 2.0 5.0 0.00 0.00 0.00 78 1028.6
20210917133230 63 107 3.0 6.0 0.00 0.00 0.00 80 1028.8
20210917131540 63 103 3.0 7.0 0.00 0.00 0.00 79 1028.9
20210917130210 62 56 3.0 6.0 0.00 0.00 0.00 83 1029.0
20210917124725 61 72 1.0 3.0 0.00 0.00 0.00 83 1029.0
20210917123031 60 63 1.0 5.0 0.00 0.00 0.00 87 1029.0
20210917121525 59 48 1.0 5.0 0.00 0.00 0.00 89 1029.1
20210917120031 58 51 2.0 5.0 0.00 0.00 0.00 90 1029.1
20210917114532 57 51 2.0 5.0 0.00 0.00 0.00 92 1029.2
20210917113035 56 45 3.0 6.0 0.00 0.00 0.00 92 1029.1
20210917111529 56 46 2.0 5.0 0.00 0.00 0.00 92 1029.2
20210917110011 55 44 2.0 5.0 0.00 0.00 0.00 92 1029.2
20210917104545 54 53 1.0 5.0 0.00 0.00 0.00 94 1029.2
20210917103022 53 65 0.0 4.0 0.00 0.00 0.00 95 1029.0
20210917101508 53 67 1.0 5.0 0.00 0.00 0.00 93 1028.7
20210917094623 53 26 0.0 3.0 0.00 0.00 0.00 96 1028.3
20210917093120 52 360 0.0 0.0 0.00 0.00 0.00 96 1028.0
20210917091610 51 360 0.0 3.0 0.00 0.00 0.00 97 1027.8
20210917090121 51 360 2.0 5.0 0.00 0.00 0.00 96 1027.7
20210917084620 51 360 0.0 5.0 0.00 0.02 0.00 96 1027.7
20210917083221 52 355 2.0 5.0 0.00 0.02 0.00 96 1027.6
20210917081708 52 355 1.0 4.0 0.00 0.02 0.00 96 1027.5
20210917080050 52 355 2.0 4.0 0.00 0.02 0.00 96 1027.3
20210917074614 53 355 3.0 5.0 0.00 0.02 0.00 97 1027.3
20210917073102 53 9 1.0 5.0 0.00 0.02 0.00 97 1027.3
20210917071637 52 22 4.0 6.0 0.00 0.02 0.00 97 1027.2
20210917070127 52 17 1.0 5.0 0.00 0.02 0.00 97 1027.0
20210917064625 52 11 2.0 4.0 0.00 0.02 0.00 97 1027.1
20210917063110 53 360 0.0 3.0 0.00 0.02 0.00 97 1027.3
20210917061621 52 5 0.0 3.0 0.00 0.02 0.00 96 1027.5
20210917060151 53 229 0.0 0.0 0.00 0.02 0.00 97 1027.7
20210917054817 53 229 0.0 0.0 0.00 0.02 0.00 97 1027.7
20210917053047 53 229 0.0 0.0 0.00 0.02 0.00 97 1027.7
20210917051559 53 229 0.0 0.0 0.00 0.02 0.00 96 1027.8
20210917050036 53 229 0.0 1.0 0.00 0.02 0.00 96 1027.7
20210917044542 52 229 0.0 2.0 0.00 0.02 0.02 96 1027.8
20210917043051 53 229 0.0 2.0 0.00 0.02 0.02 95 1027.8
20210917041552 52 229 1.0 4.0 0.00 0.02 0.02 96 1027.7
20210917040106 53 240 0.0 3.0 0.00 0.02 0.02 95 1027.8
20210917034525 53 240 0.0 0.0 0.00 0.03 0.02 95 1027.9
20210917033040 53 240 0.0 2.0 0.00 0.03 0.02 93 1027.9
20210917031635 54 234 2.0 5.0 0.00 0.03 0.02 90 1027.9
20210917030023 55 214 3.0 5.0 0.00 0.03 0.02 89 1028.1
20210917023021 57 195 2.0 5.0 0.00 0.03 0.02 87 1028.0
20210917021514 57 188 3.0 5.0 0.00 0.03 0.02 88 1027.9
20210917020045 57 194 2.0 4.0 0.00 0.03 0.02 88 1027.6
20210917014531 57 192 1.0 4.0 0.00 0.03 0.02 88 1027.6
20210917013022 58 190 2.0 4.0 0.00 0.03 0.02 88 1027.6
20210917011518 58 188 3.0 6.0 0.00 0.03 0.02 88 1027.7
20210917010007 58 198 1.0 5.0 0.00 0.03 0.02 87 1027.7
20210917004524 59 194 2.0 5.0 0.00 0.05 0.02 87 1027.8
20210917003009 59 186 2.0 5.0 0.00 0.05 0.02 88 1027.7
20210917001511 60 206 2.0 5.0 0.00 0.05 0.02 86 1027.4
20210917000131 60 195 3.0 6.0 0.00 0.05 0.02 85 1027.2
20210916234655 61 194 1.0 4.0 0.00 0.13 0.02 85 1027.0
20210916233147 59 195 2.0 5.0 0.00 0.13 0.02 89 1026.8
20210916231813 60 198 2.0 3.0 0.00 0.13 0.02 89 1026.6
20210916230151 62 198 2.0 4.0 0.00 0.13 0.02 84 1026.4
20210916224645 63 196 2.0 4.0 0.00 0.21 0.02 81 1026.4
20210916223307 64 183 2.0 5.0 0.00 0.21 0.02 81 1026.4
20210916221612 65 186 2.0 5.0 0.00 0.21 0.02 78 1026.1
20210916220150 65 314 0.0 0.0 0.00 0.21 0.02 84 1025.8
20210916214549 66 314 0.0 0.0 0.00 0.21 0.02 83 1025.8
20210916213140 66 314 0.0 0.0 0.00 0.21 0.02 81 1025.6
20210916211611 68 314 1.0 3.0 0.00 0.21 0.02 71 1025.6
20210916210105 68 314 1.0 3.0 0.00 0.21 0.02 75 1025.5
20210916204615 68 314 0.0 2.0 0.00 0.21 0.02 76 1025.3
20210916203052 69 314 1.0 3.0 0.00 0.21 0.02 66 1025.2
20210916201550 70 360 0.0 2.0 0.00 0.21 0.02 71 1025.2
20210916200058 68 19 1.0 4.0 0.00 0.21 0.02 72 1025.1
20210916194628 69 360 1.0 6.0 0.00 0.21 0.02 67 1025.1
20210916193123 69 17 2.0 5.0 0.00 0.21 0.02 72 1024.9
20210916191536 69 35 1.0 6.0 0.00 0.21 0.02 71 1024.9
20210916190107 70 344 2.0 7.0 0.00 0.21 0.02 71 1024.8
20210916184555 68 310 2.0 8.0 0.00 0.21 0.02 69 1024.9
20210916183043 69 68 4.0 9.0 0.00 0.21 0.02 70 1024.8
20210916181630 68 318 3.0 8.0 0.00 0.21 0.02 70 1024.8
20210916180050 68 333 2.0 8.0 0.00 0.21 0.02 73 1025.0
20210916174538 67 11 4.0 9.0 0.00 0.21 0.02 71 1025.0
20210916173047 67 213 2.0 11.0 0.00 0.21 0.02 75 1025.2